Time;durP1;ratioP1;P1;durP2;ratioP2;P2;SDS_P1;SDS_P2;PMS_P1;PMS_P2;Temp;Humidity;BMP_temperature;BMP_pressure;BME280_temperature;BME280_humidity;BME280_pressure;Samples;Min_cycle;Max_cycle;Signal;HPM_P1;HPM_P2
2023/09/07 07:20:45;;;;;;;9.35;8.25;;;19.90;99.90;;;;;;10594496;27;20913;-85
2023/09/07 07:26:08;;;;;;;7.68;6.88;;;19.60;1.00;;;;;;10552725;28;20197;-81
2023/09/07 07:31:30;;;;;;;7.47;6.43;;;19.70;24.70;;;;;;10554735;28;20193;-77
2023/09/07 07:36:51;;;;;;;7.28;6.57;;;19.80;33.00;;;;;;10570544;28;20217;-84
2023/09/07 07:42:12;;;;;;;8.18;6.03;;;20.20;99.90;;;;;;10581880;28;20456;-83
2023/09/07 07:47:35;;;;;;;12.85;9.77;;;20.70;1.00;;;;;;10581960;28;20445;-85
2023/09/07 07:52:56;;;;;;;7.10;5.90;;;21.30;63.00;;;;;;10553577;28;20190;-82
2023/09/07 08:33:45;;;;;;;6.45;3.88;;;;;;;;;;10555868;28;20550;-82
2023/09/07 08:39:10;;;;;;;5.13;4.32;;;;;;;;;;10540051;28;20211;-82
2023/09/07 08:44:33;;;;;;;4.28;3.78;;;;;;;;;;10554360;28;20388;-79
2023/09/07 08:49:55;;;;;;;6.50;3.28;;;28.70;99.90;;;;;;10554158;28;20226;-83
2023/09/07 08:55:16;;;;;;;4.25;3.35;;;29.40;99.90;;;;;;10554988;28;20191;-84
2023/09/07 09:00:38;;;;;;;6.20;3.50;;;;;;;;;;10554846;28;20199;-83
2023/09/07 09:45:42;;;;;;;6.32;2.83;;;31.80;99.90;;;;;;10555911;28;20546;-84
2023/09/07 09:51:04;;;;;;;5.43;3.38;;;32.10;99.90;;;;;;10555767;28;20194;-84
2023/09/07 09:56:26;;;;;;;5.80;2.50;;;31.90;99.90;;;;;;10554263;28;20507;-80
2023/09/07 10:01:50;;;;;;;4.22;2.45;;;32.40;99.90;;;;;;10554292;28;20217;-85
2023/09/07 10:07:11;;;;;;;3.88;2.85;;;32.40;99.90;;;;;;10554161;28;20199;-80
2023/09/07 10:12:43;;;;;;;2.67;2.05;;;32.90;99.90;;;;;;10555013;28;20195;-85
2023/09/07 10:18:13;;;;;;;3.72;2.45;;;32.60;99.90;;;;;;10539004;28;20240;-86
2023/09/07 10:23:45;;;;;;;3.08;1.90;;;32.90;99.90;;;;;;10553332;28;20413;-85
2023/09/07 10:29:11;;;;;;;2.63;2.10;;;33.50;99.90;;;;;;10539650;28;20191;-86
2023/09/07 10:34:37;;;;;;;9.93;2.90;;;33.60;1.00;;;;;;10538597;28;20208;-86
2023/09/07 10:39:58;;;;;;;3.97;2.45;;;33.70;99.90;;;;;;10552472;28;20225;-85
2023/09/07 10:45:20;;;;;;;3.42;2.05;;;33.60;99.90;;;;;;10552102;28;20245;-81
2023/09/07 10:50:46;;;;;;;3.75;2.33;;;33.70;99.90;;;;;;10552318;28;20217;-85
2023/09/07 10:56:08;;;;;;;2.47;2.15;;;34.30;99.90;;;;;;10514992;28;20266;-84
2023/09/07 11:01:31;;;;;;;2.63;1.90;;;34.10;99.90;;;;;;10524532;28;20211;-81
2023/09/07 11:06:52;;;;;;;4.93;1.98;;;33.90;99.90;;;;;;10525079;28;20420;-79
2023/09/07 11:12:15;;;;;;;4.00;1.83;;;;;;;;;;10523814;28;20270;-81
2023/09/07 11:17:40;;;;;;;1.80;1.55;;;;;;;;;;10524720;28;20192;-80
2023/09/07 11:23:01;;;;;;;2.50;2.08;;;34.80;99.90;;;;;;10502321;28;20598;-84
2023/09/07 11:28:24;;;;;;;7.63;1.90;;;34.60;99.90;;;;;;10523028;28;20355;-81
2023/09/07 11:33:47;;;;;;;2.65;2.00;;;34.30;99.90;;;;;;10508602;28;20209;-81
2023/09/07 11:39:14;;;;;;;2.60;2.40;;;34.10;99.90;;;;;;10522567;28;20195;-81
2023/09/07 11:44:35;;;;;;;2.42;1.85;;;34.00;99.90;;;;;;10521893;28;20234;-83
2023/09/07 11:49:57;;;;;;;4.28;1.90;;;34.10;99.90;;;;;;10522480;28;20422;-82
2023/09/07 11:55:19;;;;;;;4.18;2.30;;;34.20;99.90;;;;;;10521905;28;20195;-80
2023/09/07 12:00:41;;;;;;;2.15;1.70;;;34.10;99.90;;;;;;10522339;28;20410;-80
2023/09/07 12:06:03;;;;;;;1.70;1.60;;;33.90;99.90;;;;;;10506035;28;20365;-80
2023/09/07 12:11:24;;;;;;;3.85;2.40;;;33.70;99.90;;;;;;10506738;28;20516;-80
2023/09/07 12:16:45;;;;;;;3.10;1.92;;;33.50;99.90;;;;;;10506664;28;20520;-81
2023/09/07 12:22:06;;;;;;;2.30;1.67;;;33.40;99.90;;;;;;10499620;28;20463;-82
2023/09/07 12:27:27;;;;;;;3.53;2.00;;;33.20;99.90;;;;;;10506298;28;20191;-76
2023/09/07 12:32:52;;;;;;;3.50;1.60;;;33.30;99.90;;;;;;10520266;28;20218;-80
2023/09/07 12:38:17;;;;;;;3.85;2.00;;;33.10;99.90;;;;;;10519661;28;20270;-82
2023/09/07 12:43:38;;;;;;;4.05;1.60;;;32.80;99.90;;;;;;10505068;28;20298;-82
2023/09/07 12:48:59;;;;;;;3.13;1.92;;;32.60;99.90;;;;;;10505721;28;20194;-80
2023/09/07 12:54:21;;;;;;;2.42;2.10;;;32.50;99.90;;;;;;10519091;28;20207;-81
2023/09/07 12:59:42;;;;;;;2.20;1.83;;;32.50;99.90;;;;;;10519547;28;20186;-83
2023/09/07 13:05:05;;;;;;;2.38;1.88;;;32.20;99.90;;;;;;10519962;28;20480;-78
2023/09/07 13:10:26;;;;;;;4.13;1.70;;;32.40;99.90;;;;;;10519049;28;20245;-85
2023/09/07 13:15:47;;;;;;;5.55;1.75;;;32.20;99.90;;;;;;10518640;28;20215;-80
2023/09/07 13:21:08;;;;;;;5.95;1.95;;;31.80;99.90;;;;;;10517181;28;20210;-82
2023/09/07 13:26:30;;;;;;;4.38;2.50;;;31.20;99.90;;;;;;10519459;28;20485;-81
2023/09/07 13:31:52;;;;;;;2.33;1.50;;;31.00;99.90;;;;;;10518730;28;20401;-82
2023/09/07 13:37:13;;;;;;;2.95;1.90;;;30.80;99.90;;;;;;10519395;28;20203;-82
2023/09/07 13:42:35;;;;;;;5.45;2.75;;;30.70;99.90;;;;;;10518919;28;20231;-84
2023/09/07 13:47:56;;;;;;;3.22;2.25;;;30.30;99.90;;;;;;10503498;28;20393;-81
2023/09/07 13:53:18;;;;;;;3.92;2.20;;;29.90;99.90;;;;;;10518966;28;20218;-82
2023/09/07 13:58:38;;;;;;;3.72;2.58;;;29.70;99.90;;;;;;10518934;28;20245;-82
2023/09/07 14:04:00;;;;;;;6.47;2.60;;;29.60;99.90;;;;;;10518626;28;20381;-76
2023/09/07 14:09:23;;;;;;;4.53;2.33;;;29.40;99.90;;;;;;10518348;28;20363;-85
2023/09/07 14:14:44;;;;;;;3.25;2.25;;;29.00;99.90;;;;;;10518782;28;20195;-78
2023/09/07 14:20:05;;;;;;;2.22;2.00;;;28.70;99.90;;;;;;10491436;28;20253;-83
2023/09/07 14:25:27;;;;;;;5.60;2.20;;;28.50;99.90;;;;;;10512592;28;20225;-82
2023/09/07 14:30:48;;;;;;;4.88;2.55;;;28.30;99.90;;;;;;10522347;28;20226;-84
2023/09/07 14:36:09;;;;;;;3.00;2.30;;;28.10;99.90;;;;;;10524566;28;20226;-85
2023/09/07 14:41:31;;;;;;;2.88;2.47;;;28.00;99.90;;;;;;10524215;28;20243;-85
2023/09/07 14:46:52;;;;;;;3.78;2.70;;;27.80;99.90;;;;;;10524261;28;20210;-80
2023/09/07 15:10:12;;;;;;;2.60;2.20;;;27.20;99.90;;;;;;10523817;28;20199;-78
2023/09/07 15:15:37;;;;;;;6.35;3.00;;;27.00;99.90;;;;;;10524506;28;20194;-80
2023/09/07 15:20:58;;;;;;;4.13;2.17;;;27.50;99.90;;;;;;10508718;28;20256;-84
2023/09/07 15:26:20;;;;;;;2.20;2.00;;;26.80;99.90;;;;;;10482579;28;20851;-82
2023/09/07 15:31:40;;;;;;;2.70;2.03;;;26.50;99.90;;;;;;10482694;28;20513;-81
2023/09/07 15:37:05;;;;;;;2.88;2.10;;;26.40;99.90;;;;;;10489986;28;20199;-79
2023/09/07 15:42:26;;;;;;;5.32;2.05;;;26.20;99.90;;;;;;10523533;28;20494;-81
2023/09/07 15:47:48;;;;;;;5.60;2.90;;;26.20;99.90;;;;;;10523287;28;20191;-79
2023/09/07 15:53:09;;;;;;;2.55;2.10;;;26.00;99.90;;;;;;10523072;28;20206;-84
2023/09/07 15:58:30;;;;;;;4.65;2.20;;;25.90;99.90;;;;;;10522849;28;20501;-85
2023/09/07 16:03:51;;;;;;;3.88;2.10;;;;;;;;;;10522452;28;20418;-85
2023/09/07 16:09:13;;;;;;;3.20;2.30;;;;;;;;;;10507495;28;20199;-85
2023/09/07 16:14:34;;;;;;;3.80;2.80;;;;;;;;;;10522341;28;20186;-86
2023/09/07 16:19:56;;;;;;;3.85;2.42;;;;;;;;;;10510980;28;20413;-86
2023/09/07 16:25:18;;;;;;;3.78;2.80;;;;;;;;;;10521264;28;20551;-81
2023/09/07 16:30:39;;;;;;;5.85;3.33;;;25.30;1.00;;;;;;10521871;28;20543;-85
2023/09/07 16:36:00;;;;;;;5.25;3.35;;;25.10;1.00;;;;;;10521319;28;20197;-84
2023/09/07 16:41:22;;;;;;;5.68;3.10;;;;;;;;;;10479435;28;20388;-83
2023/09/07 16:46:43;;;;;;;8.60;4.00;;;;;;;;;;10479689;28;20202;-85
2023/09/07 16:52:04;;;;;;;5.20;4.00;;;24.60;1.00;;;;;;10515303;28;20504;-85
2023/09/07 16:57:28;;;;;;;6.18;4.25;;;24.30;99.90;;;;;;10519729;28;20198;-84
2023/09/07 17:02:49;;;;;;;5.72;4.43;;;;;;;;;;10505428;28;20380;-84
2023/09/07 17:08:11;;;;;;;13.15;6.03;;;24.00;99.90;;;;;;10520591;28;20194;-84
2023/09/07 17:13:32;;;;;;;14.45;5.35;;;23.90;1.00;;;;;;10520514;28;20222;-84
2023/09/07 17:18:53;;;;;;;9.70;4.75;;;23.70;1.00;;;;;;10517740;28;20385;-84
2023/09/07 17:24:14;;;;;;;13.30;5.18;;;23.60;1.00;;;;;;10511014;28;20223;-82
2023/09/07 17:29:35;;;;;;;10.88;4.93;;;;;;;;;;10519868;28;20182;-85
2023/09/07 17:35:01;;;;;;;7.75;4.85;;;23.20;1.00;;;;;;10519851;28;20197;-84
2023/09/07 17:40:22;;;;;;;12.57;5.57;;;23.00;1.00;;;;;;10519550;28;20297;-84
2023/09/07 17:45:43;;;;;;;13.80;6.70;;;;;;;;;;10518568;28;20337;-85
2023/09/07 17:51:04;;;;;;;9.05;4.85;;;22.70;99.90;;;;;;10518315;28;20807;-84
2023/09/07 17:56:25;;;;;;;11.73;5.60;;;22.60;99.90;;;;;;10519545;28;20207;-85
2023/09/07 18:01:46;;;;;;;12.02;6.20;;;22.50;99.90;;;;;;10519152;28;20247;-83
2023/09/07 18:07:07;;;;;;;12.43;5.50;;;22.40;99.90;;;;;;10525917;28;20201;-84
2023/09/07 18:12:28;;;;;;;10.20;5.35;;;22.30;99.90;;;;;;10527466;28;20183;-83
2023/09/07 18:17:50;;;;;;;9.70;5.22;;;22.20;99.90;;;;;;10526961;28;20194;-85
2023/09/07 18:23:12;;;;;;;10.18;5.07;;;22.10;99.90;;;;;;10519557;28;20218;-85
2023/09/07 18:28:34;;;;;;;10.85;5.90;;;22.00;99.90;;;;;;10525232;28;20264;-85
2023/09/07 18:33:55;;;;;;;5.57;4.93;;;21.90;99.90;;;;;;10526626;28;20270;-84
2023/09/07 18:39:16;;;;;;;7.72;5.22;;;21.70;99.90;;;;;;10526158;28;20270;-84
2023/09/07 18:44:37;;;;;;;10.48;5.30;;;;;;;;;;10524656;28;20529;-84
2023/09/07 18:49:58;;;;;;;8.15;6.13;;;21.60;99.90;;;;;;10525920;28;20516;-83
2023/09/07 18:55:19;;;;;;;8.57;5.15;;;;;;;;;;10525656;28;20225;-84
2023/09/07 19:00:42;;;;;;;8.90;4.65;;;21.30;99.90;;;;;;10525300;28;20213;-84
2023/09/07 19:06:03;;;;;;;15.50;7.63;;;21.40;1.00;;;;;;10525171;28;20238;-82
2023/09/07 19:18:33;;;;;;;12.15;8.18;;;21.00;1.00;;;;;;10524508;28;20175;-83
2023/09/07 19:23:55;;;;;;;27.70;19.45;;;21.00;1.00;;;;;;10524980;28;20298;-82
2023/09/07 19:29:17;;;;;;;44.75;17.50;;;20.90;1.00;;;;;;10522736;28;20215;-82
2023/09/07 19:34:38;;;;;;;14.88;10.55;;;20.80;1.00;;;;;;10523229;28;20439;-82
2023/09/07 19:39:59;;;;;;;8.60;6.55;;;20.80;1.00;;;;;;10494284;28;20199;-84
2023/09/07 19:45:21;;;;;;;9.80;5.60;;;20.70;1.00;;;;;;10522702;28;20246;-84
2023/09/07 19:50:43;;;;;;;7.60;4.78;;;20.60;1.00;;;;;;10523219;28;20191;-83
2023/09/07 19:56:10;;;;;;;5.03;3.80;;;20.60;1.00;;;;;;10521783;28;20226;-84
2023/09/07 20:01:54;;;;;;;6.10;4.47;;;20.50;1.00;;;;;;10507923;28;20203;-85
2023/09/07 20:07:15;;;;;;;8.77;5.10;;;20.50;1.00;;;;;;10522089;28;20194;-84
2023/09/07 20:12:37;;;;;;;10.23;6.28;;;20.40;1.00;;;;;;10522590;28;20217;-84
2023/09/07 20:17:58;;;;;;;9.30;6.60;;;20.40;1.00;;;;;;10522641;28;20195;-85
2023/09/07 20:23:20;;;;;;;11.65;8.15;;;20.30;1.00;;;;;;10492896;28;20238;-79
2023/09/07 20:28:42;;;;;;;12.27;8.82;;;20.20;1.00;;;;;;10505937;28;20199;-83
2023/09/07 20:34:03;;;;;;;9.40;7.32;;;20.10;1.00;;;;;;10492467;28;20283;-83
2023/09/07 20:39:25;;;;;;;11.50;5.38;;;20.10;1.00;;;;;;10478698;28;20206;-82
2023/09/07 20:44:46;;;;;;;7.82;5.10;;;20.00;1.00;;;;;;10464468;28;20289;-82
2023/09/07 20:50:07;;;;;;;7.55;4.80;;;19.90;1.00;;;;;;10499074;28;20223;-84
2023/09/07 20:55:28;;;;;;;7.68;4.88;;;19.80;1.00;;;;;;10519394;28;20209;-84
2023/09/07 21:00:50;;;;;;;11.27;7.72;;;19.80;1.00;;;;;;10519620;28;20469;-81
2023/09/07 21:06:11;;;;;;;13.55;8.95;;;19.70;1.00;;;;;;10519582;28;20257;-81
2023/09/07 21:11:32;;;;;;;13.02;10.52;;;19.60;1.00;;;;;;10519209;28;20274;-84
2023/09/07 21:16:54;;;;;;;13.07;8.93;;;19.50;1.00;;;;;;10519247;28;20201;-80
2023/09/07 21:22:15;;;;;;;29.88;17.10;;;19.50;99.90;;;;;;10505829;28;20194;-82
2023/09/07 21:32:22;;;;;;;20.65;12.63;;;19.40;1.00;;;;;;10556417;28;20542;-82
2023/09/07 21:37:44;;;;;;;18.88;10.75;;;19.30;99.90;;;;;;10540676;28;20202;-80
2023/09/07 21:43:05;;;;;;;17.90;10.48;;;19.30;8.40;;;;;;10540392;28;20550;-82
2023/09/07 21:48:26;;;;;;;13.32;8.68;;;19.20;1.00;;;;;;10554405;28;20221;-83
2023/09/07 21:53:48;;;;;;;12.90;8.43;;;19.10;99.90;;;;;;10539650;28;20206;-82
2023/09/07 21:59:09;;;;;;;11.10;6.35;;;18.90;99.90;;;;;;10514631;28;20199;-83
2023/09/07 22:04:30;;;;;;;9.50;5.88;;;18.80;1.00;;;;;;10511798;28;20275;-82
2023/09/07 22:09:51;;;;;;;7.47;5.50;;;18.70;99.90;;;;;;10540175;28;20227;-81
2023/09/07 22:15:13;;;;;;;8.50;5.80;;;18.70;93.60;;;;;;10512907;28;20191;-85
2023/09/07 22:20:34;;;;;;;8.77;5.28;;;18.70;1.00;;;;;;10513015;28;20391;-84
2023/09/07 22:25:56;;;;;;;10.77;6.18;;;18.60;99.90;;;;;;10553000;28;20205;-84
2023/09/07 22:31:16;;;;;;;12.18;5.80;;;18.60;1.00;;;;;;10553399;28;20598;-83
2023/09/07 22:36:37;;;;;;;16.17;6.30;;;18.50;1.00;;;;;;10553270;28;20196;-85
2023/09/07 22:41:58;;;;;;;10.52;6.28;;;18.50;5.90;;;;;;10535384;28;20198;-84
2023/09/07 22:47:20;;;;;;;9.43;5.93;;;18.30;29.80;;;;;;10525265;28;20195;-83
2023/09/07 22:52:41;;;;;;;8.48;4.97;;;18.30;1.00;;;;;;10524925;28;20258;-83
2023/09/07 22:58:02;;;;;;;8.63;5.80;;;18.30;1.00;;;;;;10484783;28;20192;-84
2023/09/07 23:03:23;;;;;;;10.88;6.32;;;18.30;99.90;;;;;;10481999;28;20218;-84
2023/09/07 23:08:46;;;;;;;8.75;5.53;;;18.20;99.90;;;;;;10482807;28;20298;-85
2023/09/07 23:14:07;;;;;;;8.48;5.38;;;18.10;1.00;;;;;;10482787;28;20494;-84
2023/09/07 23:19:29;;;;;;;8.45;5.05;;;18.00;99.90;;;;;;10482235;28;20256;-85
2023/09/07 23:24:50;;;;;;;9.55;5.88;;;18.00;1.00;;;;;;10526454;28;20482;-81
2023/09/07 23:30:11;;;;;;;8.98;5.32;;;17.90;99.90;;;;;;10523373;28;20253;-84
2023/09/07 23:35:32;;;;;;;11.70;5.72;;;17.70;1.00;;;;;;10523447;28;20241;-84
2023/09/07 23:40:53;;;;;;;9.45;5.22;;;17.70;99.90;;;;;;10522868;28;20209;-83
2023/09/07 23:46:14;;;;;;;7.88;5.18;;;17.60;1.00;;;;;;10521959;28;20199;-84
2023/09/07 23:51:35;;;;;;;9.48;5.32;;;17.50;1.00;;;;;;10520733;28;20222;-85
2023/09/07 23:56:56;;;;;;;13.75;6.07;;;17.60;1.00;;;;;;10507316;28;20226;-84
